Time;durP1;ratioP1;P1;durP2;ratioP2;P2;SDS_P1;SDS_P2;PMS_P1;PMS_P2;Temp;Humidity;BMP_temperature;BMP_pressure;BME280_temperature;BME280_humidity;BME280_pressure;Samples;Min_cycle;Max_cycle;Signal;HPM_P1;HPM_P2
2021/03/24 00:01:14;;;;;;;8.00;2.60;;;;;;;-1.76;83.48;100445.38;1790262;80;21421;-49
2021/03/24 00:03:50;;;;;;;8.10;2.60;;;;;;;-1.70;83.69;100443.22;1873069;76;22674;-50
2021/03/24 00:06:18;;;;;;;8.15;2.70;;;;;;;-1.75;83.84;100442.73;1840895;78;21036;-50
2021/03/24 00:08:45;;;;;;;3.42;2.20;;;;;;;-1.77;83.70;100461.56;1840926;78;21544;-50
2021/03/24 00:11:14;;;;;;;8.88;2.70;;;;;;;-1.77;83.76;100430.02;1840811;78;21107;-50
2021/03/24 00:13:43;;;;;;;6.15;2.52;;;;;;;-1.77;83.69;100456.72;1840952;78;20973;-50
2021/03/24 00:16:12;;;;;;;8.23;2.40;;;;;;;-1.77;83.78;100436.59;1841077;78;21717;-50
2021/03/24 00:18:40;;;;;;;8.90;2.52;;;;;;;-1.78;83.92;100439.19;1840912;78;21120;-50
2021/03/24 00:21:08;;;;;;;9.00;3.17;;;;;;;-1.79;84.15;100442.68;1840934;78;21749;-49
2021/03/24 00:23:36;;;;;;;12.85;2.30;;;;;;;-1.79;84.14;100446.20;1840792;78;21010;-49
2021/03/24 00:26:04;;;;;;;6.87;2.72;;;;;;;-1.80;84.03;100440.50;1840811;78;21111;-49
2021/03/24 00:28:32;;;;;;;9.23;3.10;;;;;;;-1.82;84.01;100439.61;1840804;78;21159;-49
2021/03/24 00:30:59;;;;;;;9.20;3.05;;;;;;;-1.82;84.17;100436.08;1840891;78;21041;-48
2021/03/24 00:33:27;;;;;;;16.23;3.45;;;;;;;-1.87;84.39;100444.80;1840881;78;21695;-49
2021/03/24 00:35:56;;;;;;;14.93;3.55;;;;;;;-1.89;84.60;100453.52;1840860;78;21052;-50
2021/03/24 00:38:24;;;;;;;14.25;3.25;;;;;;;-1.90;84.68;100438.62;1840822;78;21123;-50
2021/03/24 00:40:56;;;;;;;14.03;3.67;;;;;;;-1.92;84.82;100441.25;1840800;78;21115;-50
2021/03/24 00:43:26;;;;;;;8.23;2.75;;;;;;;-1.93;84.81;100439.91;1840809;77;21151;-50
2021/03/24 00:45:54;;;;;;;14.85;3.17;;;;;;;-1.95;84.86;100441.64;1825836;78;21356;-50
2021/03/24 00:48:28;;;;;;;11.33;2.98;;;;;;;-1.98;84.94;100449.07;1834489;78;21147;-50
2021/03/24 00:50:58;;;;;;;10.18;2.60;;;;;;;-2.00;85.10;100451.22;1840828;78;20922;-50
2021/03/24 00:53:26;;;;;;;17.50;3.37;;;;;;;-2.02;85.30;100447.25;1840799;78;21072;-49
2021/03/24 00:55:55;;;;;;;17.10;2.92;;;;;;;-2.03;85.44;100439.81;1840859;78;21076;-50
2021/03/24 00:58:23;;;;;;;6.37;2.92;;;;;;;-2.04;85.50;100435.42;1840777;78;21231;-49
2021/03/24 01:00:51;;;;;;;7.92;3.25;;;;;;;-2.06;85.62;100452.92;1840804;78;21047;-49
2021/03/24 01:03:19;;;;;;;11.15;4.25;;;;;;;-2.09;85.82;100447.63;1840785;77;21473;-50
2021/03/24 01:05:49;;;;;;;8.38;2.98;;;;;;;-2.13;85.88;100445.80;1840809;78;21033;-49
2021/03/24 01:08:20;;;;;;;10.25;3.50;;;;;;;-2.17;85.95;100442.70;1840955;78;21448;-49
2021/03/24 01:10:48;;;;;;;6.30;3.07;;;;;;;-2.21;86.06;100443.11;1840883;78;21422;-50
2021/03/24 01:13:16;;;;;;;5.87;2.92;;;;;;;-2.21;86.03;100446.16;1840646;78;21147;-50
2021/03/24 01:15:44;;;;;;;7.45;2.95;;;;;;;-2.22;86.11;100447.02;1840174;78;21544;-50
2021/03/24 01:18:12;;;;;;;8.05;2.90;;;;;;;-2.25;86.11;100443.91;1840155;78;21167;-50
2021/03/24 01:20:43;;;;;;;5.92;3.17;;;;;;;-2.26;86.16;100453.09;1840330;78;21536;-50
2021/03/24 01:23:13;;;;;;;5.92;2.62;;;;;;;-2.27;86.23;100456.14;1840221;78;22262;-49
2021/03/24 01:25:41;;;;;;;6.12;2.62;;;;;;;-2.29;86.25;100464.88;1840149;78;21501;-49
2021/03/24 01:28:17;;;;;;;6.08;2.80;;;;;;;-2.32;86.30;100458.73;1840156;78;21045;-49
2021/03/24 01:30:44;;;;;;;5.00;2.77;;;;;;;-2.33;86.43;100460.87;1840292;78;21550;-51
2021/03/24 01:33:13;;;;;;;5.95;2.92;;;;;;;-2.37;86.52;100469.58;1840265;78;21143;-50
2021/03/24 01:35:42;;;;;;;5.35;2.55;;;;;;;-2.40;86.56;100459.04;1840201;78;22168;-49
2021/03/24 01:38:09;;;;;;;8.65;3.45;;;;;;;-2.42;86.69;100463.39;1840207;78;21080;-50
2021/03/24 01:40:46;;;;;;;7.35;3.08;;;;;;;-2.43;86.83;100455.48;1840229;78;21040;-49
2021/03/24 01:43:23;;;;;;;7.97;3.00;;;;;;;-2.45;86.92;100457.66;1840121;78;21108;-50
2021/03/24 01:46:23;;;;;;;8.70;3.37;;;;;;;-2.46;87.00;100447.15;1828477;78;21094;-50
2021/03/24 01:49:05;;;;;;;8.93;4.33;;;;;;;-2.47;87.04;100470.33;1837152;78;21686;-49
2021/03/24 01:51:44;;;;;;;12.00;4.27;;;;;;;-2.49;87.25;100453.67;1840197;78;21095;-49
2021/03/24 01:54:16;;;;;;;9.75;3.80;;;;;;;-2.49;87.38;100445.80;1839926;77;21179;-50
2021/03/24 01:56:45;;;;;;;7.65;4.10;;;;;;;-2.49;87.47;100453.67;1811203;78;21103;-48
2021/03/24 01:59:13;;;;;;;9.80;4.45;;;;;;;-2.51;87.56;100465.91;1840270;78;21517;-49
2021/03/24 02:01:41;;;;;;;6.40;2.98;;;;;;;-2.49;87.67;100477.30;1840124;78;21372;-50
2021/03/24 02:04:09;;;;;;;12.82;4.65;;;;;;;-2.50;87.65;100470.30;1832788;77;21071;-49
2021/03/24 02:06:48;;;;;;;14.35;6.17;;;;;;;-2.50;87.75;100479.48;1832039;77;21024;-49
2021/03/24 02:09:31;;;;;;;10.65;5.25;;;;;;;-2.51;87.97;100483.84;1832062;78;21539;-50
2021/03/24 02:12:11;;;;;;;10.43;4.90;;;;;;;-2.53;88.06;100473.75;1832023;78;21059;-50
2021/03/24 02:14:59;;;;;;;9.83;4.43;;;;;;;-2.54;88.21;100473.70;1831926;78;21181;-49
2021/03/24 02:17:28;;;;;;;16.62;8.35;;;;;;;-2.54;88.40;100468.45;1804937;78;21090;-49
2021/03/24 02:20:23;;;;;;;23.07;9.73;;;;;;;-2.55;88.55;100464.07;1831918;78;21059;-49
2021/03/24 02:22:58;;;;;;;12.30;4.97;;;;;;;-2.55;88.68;100466.70;1831947;77;21059;-49
2021/03/24 02:25:31;;;;;;;;;;;;;;;-2.57;88.64;100465.80;1834646;78;21115;-49
2021/03/24 02:28:01;;;;;;;8.38;3.83;;;;;;;-2.63;88.78;100465.30;1831955;77;21355;-49
2021/03/24 02:30:34;;;;;;;10.13;3.10;;;;;;;-2.67;88.82;100457.80;1831843;78;21075;-49
2021/03/24 02:33:10;;;;;;;9.25;3.10;;;;;;;-2.68;89.05;100449.48;1832044;77;21205;-50
2021/03/24 02:35:45;;;;;;;7.27;3.63;;;;;;;-2.73;89.18;100448.53;1832052;78;21048;-50
2021/03/24 02:38:12;;;;;;;7.87;2.98;;;;;;;-2.75;89.25;100452.44;1832083;78;21115;-50
2021/03/24 02:40:41;;;;;;;9.03;3.20;;;;;;;-2.79;88.99;100449.73;1831990;78;21174;-50
2021/03/24 02:43:08;;;;;;;9.75;3.67;;;;;;;-2.88;88.58;100455.30;1831934;78;21047;-49
2021/03/24 02:45:43;;;;;;;11.07;3.73;;;;;;;-2.96;88.45;100456.05;1830464;77;21047;-49
2021/03/24 02:48:14;;;;;;;5.87;2.80;;;;;;;-3.04;88.51;100460.75;1831285;77;21484;-50
2021/03/24 02:50:43;;;;;;;5.37;2.55;;;;;;;-3.10;88.63;100465.00;1831925;78;21116;-49
2021/03/24 02:53:10;;;;;;;7.25;2.70;;;;;;;-3.20;88.97;100466.59;1831957;78;21180;-48
2021/03/24 02:55:40;;;;;;;6.13;2.67;;;;;;;-3.26;89.34;100471.30;1831859;78;21064;-48
2021/03/24 02:58:10;;;;;;;5.67;2.87;;;;;;;-3.30;89.76;100468.17;1831913;77;21489;-49
2021/03/24 03:00:38;;;;;;;6.20;3.17;;;;;;;-3.33;89.83;100466.81;1831930;78;21056;-49
2021/03/24 03:03:16;;;;;;;6.27;2.93;;;;;;;-3.37;89.99;100468.48;1808648;77;21116;-49
2021/03/24 03:05:45;;;;;;;5.35;2.70;;;;;;;-3.40;90.10;100461.02;1846021;77;21344;-49
2021/03/24 03:08:18;;;;;;;6.53;2.57;;;;;;;-3.45;90.48;100467.03;1846004;77;21139;-49
2021/03/24 03:10:59;;;;;;;4.77;2.20;;;;;;;-3.50;90.63;100456.91;1845971;77;21111;-49
2021/03/24 03:13:32;;;;;;;5.13;2.60;;;;;;;-3.53;91.24;100460.79;1846021;77;21037;-49
2021/03/24 03:16:07;;;;;;;7.00;3.40;;;;;;;-3.55;91.30;100456.36;1846063;77;21040;-49
2021/03/24 03:18:43;;;;;;;6.20;3.10;;;;;;;-3.58;91.61;100456.31;1845981;77;21096;-49
2021/03/24 03:21:17;;;;;;;;;;;;;;;-3.61;91.99;100454.53;1848665;77;21171;-49
2021/03/24 03:23:46;;;;;;;8.27;2.87;;;;;;;-3.60;92.24;100445.81;1846019;77;20209;-49
2021/03/24 03:26:19;;;;;;;7.57;2.63;;;;;;;-3.62;92.45;100448.39;1846115;77;21520;-49
2021/03/24 03:28:50;;;;;;;9.20;3.10;;;;;;;-3.61;92.50;100445.36;1846121;77;21591;-48
2021/03/24 03:31:25;;;;;;;5.03;2.60;;;;;;;-3.62;92.68;100450.15;1845939;77;21358;-49
2021/03/24 03:33:54;;;;;;;7.57;3.10;;;;;;;-3.60;92.85;100443.20;1846106;77;21619;-49
2021/03/24 03:36:22;;;;;;;7.73;3.13;;;;;;;-3.60;92.88;100441.88;1846081;77;21154;-49
2021/03/24 03:38:52;;;;;;;7.92;2.80;;;;;;;-3.62;92.94;100439.67;1846118;77;21550;-49
2021/03/24 03:41:19;;;;;;;9.27;3.07;;;;;;;-3.63;93.04;100443.14;1846054;77;21528;-49
2021/03/24 03:43:48;;;;;;;7.77;3.20;;;;;;;-3.65;92.96;100443.52;1845135;77;21340;-49
2021/03/24 03:46:19;;;;;;;7.00;2.80;;;;;;;-3.66;93.08;100453.55;1830133;78;21129;-50
2021/03/24 03:48:47;;;;;;;7.93;2.80;;;;;;;-3.67;93.20;100453.09;1842444;77;21068;-49
2021/03/24 03:51:54;;;;;;;8.17;3.50;;;;;;;-3.69;93.49;100462.66;1846022;77;21135;-49
2021/03/24 03:54:35;;;;;;;9.57;3.70;;;;;;;-3.71;93.63;100457.83;1846078;77;21155;-48
2021/03/24 03:57:20;;;;;;;6.90;3.40;;;;;;;-3.71;93.86;100452.58;1846108;77;21320;-49
2021/03/24 03:59:59;;;;;;;5.63;2.73;;;;;;;-3.68;94.19;100455.26;1845986;77;21056;-49
2021/03/24 04:02:53;;;;;;;5.13;2.83;;;;;;;-3.66;94.32;100457.06;1846031;77;21476;-49
2021/03/24 04:05:28;;;;;;;5.87;2.97;;;;;;;-3.63;94.36;100464.98;1846001;77;21064;-49
2021/03/24 04:08:11;;;;;;;6.53;3.20;;;;;;;-3.62;94.37;100468.50;1818126;77;21547;-49
2021/03/24 04:10:57;;;;;;;11.90;3.50;;;;;;;-3.62;94.64;100473.73;1846043;77;21318;-49
2021/03/24 04:13:26;;;;;;;5.10;2.90;;;;;;;-3.57;94.70;100476.01;1845912;77;21127;-49
2021/03/24 04:15:56;;;;;;;7.58;3.80;;;;;;;-3.50;94.71;100472.63;1846038;77;21120;-49
2021/03/24 04:18:35;;;;;;;6.77;3.20;;;;;;;-3.41;94.57;100467.13;1846019;77;21182;-49
2021/03/24 04:21:04;;;;;;;5.40;2.63;;;;;;;-3.31;94.40;100480.83;1845998;77;21100;-49
2021/03/24 04:23:36;;;;;;;4.83;2.72;;;;;;;-3.22;94.14;100466.55;1845941;77;21479;-49
2021/03/24 04:26:14;;;;;;;8.00;3.23;;;;;;;-3.10;93.86;100468.94;1845974;77;21112;-49
2021/03/24 04:28:45;;;;;;;9.50;3.40;;;;;;;-3.02;93.29;100476.49;1846058;77;21183;-49
2021/03/24 04:31:14;;;;;;;6.97;3.77;;;;;;;-2.95;92.81;100467.89;1845918;77;21179;-49
2021/03/24 04:33:41;;;;;;;8.53;4.92;;;;;;;-2.86;92.47;100484.20;1845934;77;21028;-50
2021/03/24 04:36:21;;;;;;;15.38;4.42;;;;;;;-2.74;92.41;100490.07;1845983;77;21709;-49
2021/03/24 04:38:52;;;;;;;10.98;4.47;;;;;;;-2.63;91.54;100492.86;1845902;77;21060;-49
2021/03/24 04:41:23;;;;;;;11.22;3.87;;;;;;;-2.56;91.11;100490.77;1845995;77;21048;-49
2021/03/24 04:44:02;;;;;;;9.70;3.83;;;;;;;-2.47;90.37;100493.95;1816782;77;21159;-49
2021/03/24 04:46:34;;;;;;;5.95;3.05;;;;;;;-2.41;90.18;100497.98;1829772;78;21063;-50
2021/03/24 04:49:17;;;;;;;5.33;3.00;;;;;;;-2.36;89.16;100505.48;1815168;78;22352;-50
2021/03/24 04:51:45;;;;;;;6.10;2.92;;;;;;;-2.29;89.08;100508.22;1831994;78;21546;-50
2021/03/24 04:54:20;;;;;;;11.78;4.05;;;;;;;-2.20;89.00;100501.34;1832052;78;21118;-50
2021/03/24 04:56:51;;;;;;;6.90;2.62;;;;;;;-2.08;88.70;100508.50;1831996;78;21063;-50
2021/03/24 04:59:22;;;;;;;11.68;3.15;;;;;;;-1.93;88.49;100508.23;1832088;78;21027;-50
2021/03/24 05:01:54;;;;;;;5.72;2.95;;;;;;;-1.79;87.93;100515.86;1831990;77;21355;-50
2021/03/24 05:04:53;;;;;;;7.37;3.05;;;;;;;-1.69;87.32;100510.70;1831962;77;21077;-50
2021/03/24 05:07:50;;;;;;;10.82;3.22;;;;;;;-1.58;87.06;100510.40;1826131;77;21070;-48
2021/03/24 05:10:30;;;;;;;6.72;2.72;;;;;;;-1.40;86.60;100518.05;1832282;78;21035;-50
2021/03/24 05:13:16;;;;;;;7.70;3.60;;;;;;;-1.07;86.52;100518.80;1832425;78;21018;-50
2021/03/24 05:15:49;;;;;;;8.35;3.70;;;;;;;-0.58;84.66;100526.20;1829435;77;21573;-49
2021/03/24 05:18:17;;;;;;;7.47;2.98;;;;;;;0.16;83.57;100517.39;1828888;77;21538;-49
2021/03/24 05:20:54;;;;;;;5.53;3.02;;;;;;;0.98;80.14;100517.58;1832239;78;21114;-50
2021/03/24 05:23:23;;;;;;;6.03;3.17;;;;;;;1.50;76.38;100513.19;1832247;78;21149;-51
2021/03/24 05:25:57;;;;;;;6.90;3.42;;;;;;;1.88;74.54;100512.66;1830772;77;21172;-50
2021/03/24 05:28:40;;;;;;;7.00;2.83;;;;;;;2.02;72.43;100507.31;1832289;77;21181;-50
2021/03/24 05:31:12;;;;;;;8.25;3.75;;;;;;;1.84;71.20;100518.38;1832242;77;21062;-50
2021/03/24 05:33:42;;;;;;;6.15;2.80;;;;;;;1.57;71.57;100503.03;1832262;78;21160;-50
2021/03/24 05:36:22;;;;;;;7.92;3.90;;;;;;;1.26;72.66;100509.69;1832242;77;21176;-50
2021/03/24 05:38:51;;;;;;;6.80;3.05;;;;;;;0.99;73.37;100510.10;1832290;78;21014;-50
2021/03/24 05:41:46;;;;;;;6.58;3.20;;;;;;;0.74;74.39;100510.08;1832371;78;22684;-50
2021/03/24 05:44:41;;;;;;;13.32;3.80;;;;;;;0.68;75.22;100507.44;1832027;78;25584;-50
2021/03/24 05:47:53;;;;;;;8.48;3.87;;;;;;;0.61;75.66;100513.59;1832773;77;21047;-50
2021/03/24 05:50:42;;;;;;;5.22;3.00;;;;;;;0.52;76.19;100510.03;1757797;77;21105;-51
2021/03/24 05:53:20;;;;;;;8.15;4.78;;;;;;;0.50;76.59;100523.66;1849111;77;21036;-50
2021/03/24 05:56:08;;;;;;;11.60;5.72;;;;;;;0.42;76.44;100521.45;1848330;77;21539;-50
2021/03/24 05:58:57;;;;;;;13.58;7.53;;;;;;;0.39;76.82;100525.40;1848959;77;21131;-50
2021/03/24 06:01:32;;;;;;;17.67;8.70;;;;;;;0.36;76.63;100529.35;1848997;77;21524;-49
2021/03/24 06:04:31;;;;;;;9.50;5.20;;;;;;;0.39;77.54;100539.45;1848097;77;21072;-50
2021/03/24 06:07:21;;;;;;;20.88;10.32;;;;;;;0.44;76.92;100534.20;1846147;77;21040;-49
2021/03/24 06:10:34;;;;;;;20.88;10.65;;;;;;;0.48;77.32;100529.83;1845976;77;21057;-50
2021/03/24 06:13:58;;;;;;;15.60;8.20;;;;;;;0.59;77.39;100527.22;1846081;77;21158;-51
2021/03/24 06:16:57;;;;;;;20.82;10.63;;;;;;;0.57;77.01;100533.80;1845976;77;21092;-50
2021/03/24 06:19:31;;;;;;;27.00;13.03;;;;;;;0.53;77.27;100535.53;1845990;77;21120;-51
2021/03/24 06:22:38;;;;;;;22.20;11.55;;;;;;;0.56;77.69;100538.63;1846130;77;21096;-50
2021/03/24 06:25:17;;;;;;;16.67;6.87;;;;;;;0.70;77.81;100530.75;1846088;77;21537;-50
2021/03/24 06:28:16;;;;;;;12.85;5.40;;;;;;;0.97;77.59;100534.30;1784126;80;21146;-51
2021/03/24 06:31:18;;;;;;;15.83;6.95;;;;;;;1.20;76.67;100542.25;1786639;80;21124;-50
2021/03/24 06:34:06;;;;;;;12.98;6.22;;;;;;;1.35;76.17;100543.14;1786581;80;21101;-50
2021/03/24 06:37:07;;;;;;;17.25;7.47;;;;;;;1.51;75.61;100551.94;1768862;80;21120;-51
2021/03/24 06:39:52;;;;;;;10.85;4.12;;;;;;;1.41;74.73;100549.28;1786624;80;21188;-50
2021/03/24 06:42:34;;;;;;;7.28;4.05;;;;;;;1.26;75.06;100547.98;1786524;79;21085;-50
2021/03/24 06:45:19;;;;;;;6.97;3.92;;;;;;;1.19;75.16;100543.56;1768799;79;21259;-50
2021/03/24 06:48:08;;;;;;;6.65;3.67;;;;;;;1.09;75.48;100545.31;1758845;78;21057;-50
2021/03/24 06:51:02;;;;;;;21.80;7.40;;;;;;;1.06;75.52;100559.41;1759253;80;21121;-51
2021/03/24 06:54:04;;;;;;;34.03;16.35;;;;;;;1.10;75.34;100545.75;1761864;80;21112;-49
2021/03/24 06:57:06;;;;;;;21.62;10.50;;;;;;;1.20;75.72;100544.00;1755427;81;21176;-50
2021/03/24 07:00:11;;;;;;;13.50;6.15;;;;;;;1.24;75.89;100545.33;1755434;81;21140;-50
2021/03/24 07:03:33;;;;;;;11.12;5.97;;;;;;;1.37;75.94;100542.24;1755488;81;21061;-49
2021/03/24 07:06:34;;;;;;;22.58;11.60;;;;;;;1.49;75.14;100551.92;1750062;81;21448;-50
2021/03/24 07:09:45;;;;;;;18.57;9.65;;;;;;;1.48;73.58;100549.30;1767224;80;21604;-51
2021/03/24 07:12:22;;;;;;;11.70;6.15;;;;;;;1.46;73.69;100551.06;1779008;80;21113;-50
2021/03/24 07:15:18;;;;;;;10.55;5.28;;;;;;;1.59;72.78;100553.26;1779585;80;21109;-49
2021/03/24 07:18:42;;;;;;;11.40;4.83;;;;;;;1.61;72.81;100554.99;1780943;80;21533;-50
2021/03/24 07:22:00;;;;;;;9.85;4.15;;;;;;;1.68;72.98;100543.55;1770758;80;21469;-50
2021/03/24 07:25:05;;;;;;;8.65;4.50;;;;;;;1.85;73.52;100550.55;1757342;80;21109;-50
2021/03/24 07:27:59;;;;;;;12.33;5.45;;;;;;;2.08;73.67;100544.31;1763610;80;21137;-50
2021/03/24 07:30:39;;;;;;;16.17;5.55;;;;;;;2.07;71.22;100565.03;1755769;80;21502;-49
2021/03/24 07:33:37;;;;;;;16.40;4.83;;;;;;;1.90;71.46;100564.66;1751843;80;21192;-50
2021/03/24 07:36:52;;;;;;;6.92;4.20;;;;;;;1.88;71.78;100555.86;1746775;80;21137;-50
2021/03/24 07:39:53;;;;;;;5.72;3.35;;;;;;;1.92;71.44;100554.95;1736957;80;21203;-49
2021/03/24 07:43:03;;;;;;;9.80;3.20;;;;;;;2.14;71.59;100557.55;1729681;81;21561;-49
2021/03/24 07:46:23;;;;;;;4.95;3.02;;;;;;;2.37;71.16;100564.05;1741478;81;21074;-50
2021/03/24 07:49:15;;;;;;;8.23;4.17;;;;;;;2.44;70.38;100562.27;1774774;79;21185;-50
2021/03/24 07:52:17;;;;;;;15.45;7.95;;;;;;;2.37;70.24;100575.95;1745945;79;21062;-51
2021/03/24 07:55:19;;;;;;;15.63;8.90;;;;;;;2.21;71.34;100568.53;1708314;80;21526;-50
2021/03/24 07:57:59;;;;;;;9.33;3.08;;;;;;;2.08;71.81;100575.63;1765819;80;21176;-50
2021/03/24 08:00:38;;;;;;;8.13;2.98;;;;;;;2.06;70.53;100568.56;1722091;80;21172;-50
2021/03/24 08:03:29;;;;;;;6.55;2.55;;;;;;;2.17;69.73;100569.43;1748485;80;21171;-51
2021/03/24 08:06:38;;;;;;;5.75;2.75;;;;;;;2.32;68.64;100574.20;1763202;81;21178;-51
2021/03/24 08:09:30;;;;;;;8.65;2.40;;;;;;;2.45;67.87;100577.25;1796322;79;21562;-50
2021/03/24 08:12:11;;;;;;;8.75;2.20;;;;;;;2.53;66.90;100584.70;1743975;80;21120;-52
2021/03/24 08:14:56;;;;;;;6.10;2.70;;;;;;;2.63;65.23;100580.71;1796304;79;21527;-51
2021/03/24 08:17:55;;;;;;;8.23;3.05;;;;;;;2.69;65.54;100580.67;1765263;81;21126;-53
2021/03/24 08:24:34;;;;;;;9.63;4.20;;;;;;;2.84;67.11;100589.87;1765166;81;21220;-51
2021/03/24 08:27:22;;;;;;;4.75;2.45;;;;;;;2.89;66.93;100587.62;1798128;79;21049;-50
2021/03/24 08:30:07;;;;;;;4.62;2.45;;;;;;;2.86;64.93;100594.70;1798429;79;21057;-51
2021/03/24 08:33:00;;;;;;;;;;;;;;;2.83;64.75;100596.48;1778754;79;21109;-50
2021/03/24 08:36:14;;;;;;;5.50;2.42;;;;;;;2.88;64.93;100592.49;1798108;79;20218;-50
2021/03/24 08:38:58;;;;;;;8.35;3.77;;;;;;;3.09;65.28;100586.16;1798443;79;21692;-49
2021/03/24 08:41:56;;;;;;;5.08;3.35;;;;;;;3.40;65.01;100593.45;1798405;79;21073;-50
2021/03/24 08:44:37;;;;;;;7.05;3.83;;;;;;;3.51;64.02;100597.34;1788173;79;21205;-50
2021/03/24 08:47:11;;;;;;;9.35;3.95;;;;;;;3.55;64.25;100594.23;1796734;79;21144;-50
2021/03/24 08:49:41;;;;;;;6.72;3.60;;;;;;;3.65;64.40;100602.55;1798501;79;21149;-50
2021/03/24 08:53:04;;;;;;;8.48;3.45;;;;;;;3.73;63.84;100595.40;1798481;79;22770;-50
2021/03/24 08:55:48;;;;;;;6.15;3.02;;;;;;;3.75;62.77;100599.80;1798224;78;21360;-51
2021/03/24 08:58:29;;;;;;;7.22;3.87;;;;;;;3.64;62.85;100594.14;1744332;79;21110;-50
2021/03/24 09:01:25;;;;;;;6.08;3.47;;;;;;;3.57;63.26;100597.74;1796239;79;21079;-49
2021/03/24 09:04:40;;;;;;;11.15;3.72;;;;;;;3.50;63.99;100602.21;1765229;81;21130;-50
2021/03/24 09:07:39;;;;;;;7.08;3.90;;;;;;;3.41;64.32;100604.95;1796446;79;21413;-49
2021/03/24 09:10:26;;;;;;;5.62;3.60;;;;;;;3.33;64.03;100601.02;1765071;81;21158;-50
2021/03/24 09:13:16;;;;;;;;;;;;;;;3.29;63.78;100596.64;1799199;79;21114;-50
2021/03/24 09:16:33;;;;;;;7.08;3.95;;;;;;;3.37;63.57;100596.13;1796476;79;20221;-50
2021/03/24 09:19:42;;;;;;;7.37;4.15;;;;;;;3.49;63.56;100597.80;1765329;80;21216;-50
2021/03/24 09:22:43;;;;;;;7.70;4.40;;;;;;;3.79;63.06;100593.58;1796466;79;21191;-50
2021/03/24 09:25:52;;;;;;;9.13;4.12;;;;;;;4.05;62.43;100593.76;1765121;81;21078;-51
2021/03/24 09:28:41;;;;;;;9.08;3.85;;;;;;;4.11;62.28;100596.37;1796369;79;21478;-50
2021/03/24 09:31:58;;;;;;;11.03;4.28;;;;;;;4.05;61.79;100596.41;1765315;81;21086;-50
2021/03/24 09:35:04;;;;;;;10.13;5.35;;;;;;;3.99;62.55;100605.34;1798319;79;21167;-50
2021/03/24 09:37:39;;;;;;;17.92;8.75;;;;;;;3.90;63.49;100595.69;1782074;80;21513;-50
2021/03/24 09:40:15;;;;;;;15.05;8.60;;;;;;;3.87;63.99;100605.01;1781994;80;21131;-50
2021/03/24 09:42:50;;;;;;;12.53;5.28;;;;;;;3.86;64.19;100600.56;1780422;80;21538;-49
2021/03/24 09:45:21;;;;;;;7.53;4.87;;;;;;;3.89;63.71;100601.89;1760981;80;21249;-50
2021/03/24 09:48:14;;;;;;;9.45;4.85;;;;;;;4.00;63.54;100593.36;1750885;82;21061;-50
2021/03/24 09:51:09;;;;;;;9.05;4.87;;;;;;;4.09;62.98;100594.15;1750889;82;21212;-50
2021/03/24 09:53:41;;;;;;;7.12;4.83;;;;;;;4.11;63.21;100593.71;1750946;82;21137;-49
2021/03/24 09:56:23;;;;;;;8.88;4.78;;;;;;;4.16;63.62;100588.77;1763571;80;21397;-49
2021/03/24 09:59:02;;;;;;;8.93;4.60;;;;;;;4.19;63.70;100592.28;1743440;80;21184;-50
2021/03/24 10:01:38;;;;;;;10.32;5.70;;;;;;;4.20;63.43;100588.29;1781996;80;21073;-49
2021/03/24 10:04:37;;;;;;;8.68;5.37;;;;;;;4.21;63.23;100582.55;1729099;80;21498;-50
2021/03/24 10:07:23;;;;;;;11.38;4.95;;;;;;;4.28;63.03;100594.38;1781714;80;21132;-50
2021/03/24 10:10:00;;;;;;;8.75;4.47;;;;;;;4.35;62.49;100582.39;1780926;80;21113;-50
2021/03/24 10:12:47;;;;;;;9.03;5.17;;;;;;;4.43;61.33;100594.67;1781916;80;21053;-50
2021/03/24 10:15:37;;;;;;;10.35;4.75;;;;;;;4.51;60.67;100598.53;1760280;80;21117;-51
2021/03/24 10:18:11;;;;;;;9.88;5.62;;;;;;;4.62;62.17;100593.55;1750925;82;21437;-49
2021/03/24 10:20:57;;;;;;;9.43;5.62;;;;;;;4.68;62.00;100584.17;1753863;80;21204;-50
2021/03/24 10:23:47;;;;;;;9.00;5.05;;;;;;;4.71;62.70;100589.44;1757867;81;21202;-50
2021/03/24 10:26:23;;;;;;;7.33;4.70;;;;;;;4.81;62.62;100597.73;1782090;78;21167;-50
2021/03/24 10:29:09;;;;;;;8.28;4.95;;;;;;;4.77;62.01;100597.78;1754184;79;21042;-50
2021/03/24 10:31:41;;;;;;;7.87;4.75;;;;;;;4.69;61.82;100597.88;1789812;79;21134;-50
2021/03/24 10:34:15;;;;;;;9.40;4.37;;;;;;;4.57;61.74;100600.24;1763920;81;21188;-49
2021/03/24 10:37:08;;;;;;;6.92;4.55;;;;;;;4.53;62.07;100595.44;1784797;79;21153;-51
2021/03/24 10:39:57;;;;;;;7.17;3.90;;;;;;;4.53;62.01;100591.45;1776339;79;21161;-51
2021/03/24 10:42:51;;;;;;;6.83;4.25;;;;;;;4.53;62.01;100591.45;1765821;81;21110;-51
2021/03/24 10:45:46;;;;;;;6.30;4.47;;;;;;;4.53;61.60;100595.88;1761136;80;21455;-51
2021/03/24 10:48:25;;;;;;;6.45;4.20;;;;;;;4.48;61.90;100590.61;1789910;79;21128;-50
2021/03/24 10:51:03;;;;;;;6.03;4.17;;;;;;;4.54;61.12;100585.25;1766610;81;21114;-50
2021/03/24 10:53:33;;;;;;;8.15;4.00;;;;;;;4.54;61.12;100585.25;1783288;79;21053;-50
2021/03/24 10:56:15;;;;;;;7.55;4.37;;;;;;;4.53;60.79;100582.16;1767589;79;21117;-50
2021/03/24 10:59:14;;;;;;;7.60;3.70;;;;;;;4.51;60.64;100582.61;1780076;79;21246;-50
2021/03/24 11:01:53;;;;;;;7.22;4.60;;;;;;;4.53;61.11;100582.16;1789181;79;21069;-50
2021/03/24 11:04:44;;;;;;;9.15;4.42;;;;;;;4.54;61.02;100581.27;1771858;79;21086;-51
2021/03/24 11:07:45;;;;;;;6.53;4.20;;;;;;;4.54;60.94;100582.59;1758934;80;21248;-50
2021/03/24 11:10:39;;;;;;;6.65;4.10;;;;;;;4.59;60.55;100580.75;1771194;80;21592;-51
2021/03/24 11:13:20;;;;;;;7.20;4.12;;;;;;;4.69;60.49;100585.92;1747626;80;21525;-50
2021/03/24 11:16:10;;;;;;;6.95;4.00;;;;;;;4.68;60.12;100581.52;1770584;80;21172;-50
2021/03/24 11:18:48;;;;;;;6.00;3.98;;;;;;;4.69;59.78;100581.51;1776265;80;21055;-50
2021/03/24 11:21:29;;;;;;;6.03;3.85;;;;;;;4.62;59.87;100574.97;1781337;80;21073;-50
2021/03/24 11:24:20;;;;;;;6.78;4.10;;;;;;;4.62;59.61;100583.80;1783758;80;21152;-50
2021/03/24 11:27:05;;;;;;;5.00;3.30;;;;;;;4.68;59.44;100582.84;1705289;82;21552;-51
2021/03/24 11:29:39;;;;;;;6.58;3.72;;;;;;;4.62;58.03;100590.90;1728528;82;21183;-50
2021/03/24 11:32:34;;;;;;;4.95;3.40;;;;;;;4.47;58.38;100588.00;1760950;80;21181;-51
2021/03/24 11:35:27;;;;;;;6.03;3.60;;;;;;;4.36;59.39;100586.80;1751305;81;28059;-51
2021/03/24 11:38:28;;;;;;;6.08;4.03;;;;;;;4.30;60.75;100593.91;1758233;81;21128;-50
2021/03/24 11:41:02;;;;;;;5.70;3.83;;;;;;;4.30;60.75;100593.91;1703223;80;22745;-50
2021/03/24 11:43:32;;;;;;;5.70;3.92;;;;;;;4.41;60.33;100591.59;1769357;80;21079;-50
2021/03/24 11:46:16;;;;;;;6.53;4.03;;;;;;;4.49;59.94;100596.34;1765429;80;21059;-51
2021/03/24 11:49:07;;;;;;;5.62;3.95;;;;;;;4.53;59.29;100599.86;1764297;81;21275;-52
2021/03/24 11:52:12;;;;;;;7.20;3.58;;;;;;;4.54;59.39;100595.87;1765499;81;21126;-50
2021/03/24 11:55:10;;;;;;;7.67;4.28;;;;;;;4.61;59.57;100595.78;1760863;81;21199;-50
2021/03/24 11:57:48;;;;;;;7.35;4.60;;;;;;;4.69;59.67;100599.20;1765429;81;21174;-51
2021/03/24 12:00:53;;;;;;;6.25;4.03;;;;;;;4.74;59.30;100594.70;1765390;81;21142;-51
2021/03/24 12:03:56;;;;;;;5.95;4.00;;;;;;;4.75;59.14;100599.11;1749976;82;21061;-50
2021/03/24 12:07:00;;;;;;;7.92;4.17;;;;;;;4.80;59.43;100593.31;1753101;81;21172;-50
2021/03/24 12:09:30;;;;;;;8.13;4.00;;;;;;;4.81;58.95;100595.08;1758932;81;21761;-51
2021/03/24 12:12:13;;;;;;;6.28;3.83;;;;;;;4.72;58.94;100591.19;1758868;81;21560;-50
2021/03/24 12:14:44;;;;;;;5.95;3.77;;;;;;;4.65;59.35;100589.53;1753466;81;21180;-51
2021/03/24 12:17:34;;;;;;;5.75;3.60;;;;;;;4.57;59.63;100586.53;1758972;81;21430;-49
2021/03/24 12:20:10;;;;;;;8.48;4.83;;;;;;;4.50;59.89;100592.80;1786821;80;21112;-50
2021/03/24 12:22:38;;;;;;;6.42;3.90;;;;;;;4.41;60.43;100591.59;1790193;80;21204;-50
2021/03/24 12:25:22;;;;;;;7.08;4.17;;;;;;;4.37;61.07;100587.23;1790031;80;21124;-51
2021/03/24 12:28:04;;;;;;;7.60;4.47;;;;;;;4.37;61.07;100587.23;1790154;80;21077;-50
2021/03/24 12:30:44;;;;;;;6.40;4.53;;;;;;;4.36;61.13;100604.05;1790069;80;21161;-51
2021/03/24 12:33:22;;;;;;;6.72;4.75;;;;;;;4.33;61.82;100591.68;1790164;80;21069;-50
2021/03/24 12:36:12;;;;;;;6.60;4.25;;;;;;;4.35;61.76;100601.83;1790104;80;21362;-50
2021/03/24 12:38:48;;;;;;;6.67;4.50;;;;;;;4.39;61.38;100602.69;1790115;80;21081;-50
2021/03/24 12:41:36;;;;;;;7.65;4.60;;;;;;;4.42;61.17;100598.66;1790047;80;21149;-50
2021/03/24 12:44:27;;;;;;;8.43;4.70;;;;;;;4.47;60.77;100594.17;1786778;80;21165;-50